createdAt,value
2023-03-06T00:02:15.533Z,10.88
2023-03-06T00:04:41.869Z,35.67
2023-03-06T00:07:08.296Z,46.60
2023-03-06T00:09:34.609Z,18.20
2023-03-06T00:12:01.000Z,10.73
2023-03-06T00:14:27.408Z,9.63
2023-03-06T00:16:54.810Z,9.40
2023-03-06T00:19:21.387Z,9.75
2023-03-06T00:21:47.764Z,8.45
2023-03-06T00:24:14.207Z,15.00
2023-03-06T00:26:41.278Z,10.77
2023-03-06T00:29:08.484Z,10.88
2023-03-06T00:31:35.967Z,9.45
2023-03-06T00:34:02.998Z,13.57
2023-03-06T00:36:29.378Z,9.27
2023-03-06T00:38:55.715Z,8.45
2023-03-06T00:41:22.113Z,10.85
2023-03-06T00:43:48.495Z,8.32
2023-03-06T00:46:14.876Z,8.23
2023-03-06T00:48:41.225Z,6.82
2023-03-06T00:51:07.661Z,6.82
2023-03-06T00:53:33.976Z,7.35
2023-03-06T00:56:00.310Z,7.00
2023-03-06T00:58:26.672Z,6.03
2023-03-06T01:00:53.037Z,6.80
2023-03-06T01:03:19.401Z,6.32
2023-03-06T01:05:45.889Z,6.50
2023-03-06T01:08:12.222Z,6.10
2023-03-06T01:10:39.420Z,6.10
2023-03-06T01:13:05.871Z,6.43
2023-03-06T01:15:32.227Z,6.30
2023-03-06T01:17:58.624Z,6.88
2023-03-06T01:20:25.062Z,6.30
2023-03-06T01:22:51.484Z,6.43
2023-03-06T01:25:17.982Z,6.68
2023-03-06T01:27:44.337Z,6.50
2023-03-06T01:30:11.287Z,6.00
2023-03-06T01:32:37.672Z,6.43
2023-03-06T01:35:04.400Z,6.32
2023-03-06T01:37:30.874Z,6.78
2023-03-06T01:39:57.297Z,6.22
2023-03-06T01:42:23.692Z,7.03
2023-03-06T01:44:59.967Z,6.32
2023-03-06T01:47:26.348Z,6.68
2023-03-06T01:49:53.244Z,7.47
2023-03-06T01:52:21.987Z,7.68
2023-03-06T01:54:50.634Z,7.60
2023-03-06T01:57:28.812Z,7.03
2023-03-06T02:00:07.105Z,7.15
2023-03-06T02:02:33.603Z,7.22
2023-03-06T02:05:01.038Z,7.93
2023-03-06T02:07:28.289Z,9.35
2023-03-06T02:09:54.635Z,8.40
2023-03-06T02:12:21.706Z,7.60
2023-03-06T02:14:48.504Z,7.77
2023-03-06T02:17:16.132Z,7.22
2023-03-06T02:19:45.241Z,7.97
2023-03-06T02:22:11.569Z,8.32
2023-03-06T02:24:50.167Z,8.18
2023-03-06T02:27:17.623Z,10.95
2023-03-06T02:29:44.381Z,8.70
2023-03-06T02:32:10.873Z,7.93
2023-03-06T02:34:37.249Z,8.38
2023-03-06T02:37:08.747Z,8.55
2023-03-06T02:39:38.565Z,8.75
2023-03-06T02:42:04.905Z,8.95
2023-03-06T02:44:32.435Z,10.60
2023-03-06T02:46:58.817Z,8.07
2023-03-06T02:49:26.508Z,7.28
2023-03-06T02:51:53.052Z,7.95
2023-03-06T02:54:19.460Z,8.50
2023-03-06T02:56:46.099Z,7.93
2023-03-06T02:59:12.608Z,8.65
2023-03-06T03:01:39.020Z,9.98
2023-03-06T03:04:05.762Z,9.93
2023-03-06T03:06:32.110Z,10.82
2023-03-06T03:08:58.430Z,11.20
2023-03-06T03:11:24.752Z,10.93
2023-03-06T03:13:51.070Z,11.15
2023-03-06T03:16:17.470Z,16.83
2023-03-06T03:18:44.543Z,17.80
2023-03-06T03:21:12.084Z,25.17
2023-03-06T03:23:38.552Z,18.85
2023-03-06T03:26:08.163Z,21.65
2023-03-06T03:28:34.511Z,23.00
2023-03-06T03:31:08.553Z,24.30
2023-03-06T03:33:35.143Z,24.23
2023-03-06T03:36:02.989Z,23.25
2023-03-06T03:38:29.691Z,19.02
2023-03-06T03:40:56.161Z,13.93
2023-03-06T03:43:22.499Z,17.05
2023-03-06T03:45:48.825Z,19.30
2023-03-06T03:48:15.153Z,28.77
2023-03-06T03:50:41.492Z,19.65
2023-03-06T03:53:07.885Z,22.92
2023-03-06T03:55:34.221Z,10.43
2023-03-06T03:58:00.606Z,10.18
2023-03-06T04:00:26.935Z,9.10
2023-03-06T04:02:53.315Z,7.97
2023-03-06T04:05:19.735Z,8.27
2023-03-06T04:07:46.097Z,9.93
2023-03-06T04:10:12.738Z,9.25
2023-03-06T04:12:39.111Z,8.82
2023-03-06T04:15:06.127Z,8.18
2023-03-06T04:17:35.424Z,7.85
2023-03-06T04:20:02.444Z,7.68
2023-03-06T04:22:28.834Z,7.93
2023-03-06T04:24:55.236Z,7.78
2023-03-06T04:27:21.647Z,7.40
2023-03-06T04:29:48.021Z,8.07
2023-03-06T04:32:14.898Z,8.23
2023-03-06T04:34:41.314Z,6.90
2023-03-06T04:37:11.457Z,7.38
2023-03-06T04:39:37.766Z,6.25
2023-03-06T04:42:04.249Z,6.72
2023-03-06T04:44:30.684Z,6.22
2023-03-06T04:46:57.054Z,5.47
2023-03-06T04:49:23.400Z,5.65
2023-03-06T04:51:49.976Z,5.20
2023-03-06T04:54:18.891Z,5.55
2023-03-06T04:56:45.362Z,5.20
2023-03-06T04:59:11.735Z,6.45
2023-03-06T05:01:38.046Z,6.50
2023-03-06T05:04:04.495Z,7.05
2023-03-06T05:06:30.848Z,7.05
2023-03-06T05:08:57.257Z,7.88
2023-03-06T05:11:23.665Z,7.88
2023-03-06T05:13:50.376Z,8.40
2023-03-06T05:16:16.726Z,12.15
2023-03-06T05:18:43.076Z,9.68
2023-03-06T05:21:09.853Z,9.07
2023-03-06T05:23:38.435Z,8.45
2023-03-06T05:26:06.898Z,9.10
2023-03-06T05:28:33.235Z,8.85
2023-03-06T05:31:01.008Z,8.07
2023-03-06T05:33:28.647Z,8.13
2023-03-06T05:35:55.050Z,8.05
2023-03-06T05:38:23.074Z,14.18
2023-03-06T05:43:15.688Z,15.05
2023-03-06T05:45:42.092Z,9.55
2023-03-06T05:48:08.486Z,8.82
2023-03-06T05:50:34.824Z,9.10
2023-03-06T05:53:01.409Z,8.50
2023-03-06T05:55:27.756Z,9.25
2023-03-06T05:57:54.144Z,10.88
2023-03-06T06:00:21.029Z,9.05
2023-03-06T06:02:47.372Z,9.75
2023-03-06T06:05:13.879Z,10.25
2023-03-06T06:07:40.579Z,9.93
2023-03-06T06:10:07.308Z,13.68
2023-03-06T06:12:33.857Z,9.18
2023-03-06T06:15:00.220Z,8.15
2023-03-06T06:17:26.595Z,13.75
2023-03-06T06:19:52.932Z,8.48
2023-03-06T06:22:19.267Z,7.70
2023-03-06T06:24:45.593Z,8.35
2023-03-06T06:27:12.013Z,5.38
2023-03-06T06:29:38.325Z,6.50
2023-03-06T06:32:04.796Z,6.35
2023-03-06T06:34:31.920Z,5.60
2023-03-06T06:36:58.315Z,4.77
2023-03-06T06:39:24.757Z,4.65
2023-03-06T06:42:09.727Z,5.45
2023-03-06T06:44:39.303Z,4.82
2023-03-06T06:47:24.010Z,5.78
2023-03-06T06:49:55.335Z,5.55
2023-03-06T06:52:22.347Z,6.05
2023-03-06T06:54:48.752Z,5.90
2023-03-06T06:57:15.583Z,5.30
2023-03-06T06:59:42.093Z,5.13
2023-03-06T07:02:10.195Z,5.90
2023-03-06T07:04:36.531Z,5.53
2023-03-06T07:07:03.547Z,5.18
2023-03-06T07:09:30.911Z,6.45
2023-03-06T07:11:57.562Z,5.30
2023-03-06T07:14:24.091Z,5.10
2023-03-06T07:16:50.407Z,5.40
2023-03-06T07:19:16.782Z,7.32
2023-03-06T07:21:43.149Z,6.40
2023-03-06T07:24:09.490Z,7.55
2023-03-06T07:26:35.879Z,5.90
2023-03-06T07:29:03.561Z,6.00
2023-03-06T07:31:30.383Z,5.78
2023-03-06T07:33:56.739Z,5.90
2023-03-06T07:36:23.318Z,8.10
2023-03-06T07:38:49.653Z,8.18
2023-03-06T07:41:17.145Z,6.25
2023-03-06T07:43:44.201Z,13.30
2023-03-06T07:46:10.777Z,26.03
2023-03-06T07:48:37.669Z,14.77
2023-03-06T07:51:05.280Z,12.60
2023-03-06T07:53:32.254Z,11.77
2023-03-06T07:55:58.696Z,23.25
2023-03-06T07:58:25.166Z,52.67
2023-03-06T08:00:51.566Z,25.88
2023-03-06T08:03:17.954Z,27.15
2023-03-06T08:05:44.882Z,27.20
2023-03-06T08:08:11.696Z,36.38
2023-03-06T08:10:38.041Z,33.00
2023-03-06T08:13:04.505Z,23.05
2023-03-06T08:15:30.887Z,13.05
2023-03-06T08:17:57.234Z,7.15
2023-03-06T08:20:23.573Z,8.35
2023-03-06T08:22:49.970Z,6.78
2023-03-06T08:25:16.302Z,7.32
2023-03-06T08:27:43.341Z,8.18
2023-03-06T08:30:10.100Z,13.80
2023-03-06T08:32:36.874Z,5.65
2023-03-06T08:35:04.151Z,5.40
2023-03-06T08:37:30.522Z,8.75
2023-03-06T08:39:56.853Z,5.93
2023-03-06T08:42:23.309Z,11.82
2023-03-06T08:44:49.749Z,9.77
2023-03-06T08:47:16.137Z,16.67
2023-03-06T08:49:42.489Z,6.20
2023-03-06T08:52:08.902Z,6.15
2023-03-06T08:54:35.805Z,5.20
2023-03-06T08:57:02.292Z,4.47
2023-03-06T08:59:28.627Z,19.70
2023-03-06T09:01:55.061Z,8.80
2023-03-06T09:04:21.539Z,29.15
2023-03-06T09:06:47.970Z,5.47
2023-03-06T09:09:14.410Z,46.60
2023-03-06T09:11:40.745Z,34.05
2023-03-06T09:14:07.357Z,5.57
2023-03-06T09:16:33.767Z,34.78
2023-03-06T09:19:00.249Z,2.83
2023-03-06T09:21:28.217Z,6.13
2023-03-06T09:23:54.870Z,3.00
2023-03-06T09:26:21.258Z,2.70
2023-03-06T09:28:47.679Z,4.05
2023-03-06T09:31:15.691Z,3.90
2023-03-06T09:33:42.386Z,2.33
2023-03-06T09:36:10.393Z,2.22
2023-03-06T09:38:36.727Z,1.80
2023-03-06T09:41:05.264Z,1.77
2023-03-06T09:43:38.008Z,1.60
2023-03-06T09:46:16.411Z,2.85
2023-03-06T09:48:52.742Z,1.35
2023-03-06T09:51:21.856Z,1.40
2023-03-06T09:53:48.183Z,2.40
2023-03-06T09:56:21.997Z,1.70
2023-03-06T09:58:49.863Z,1.77
2023-03-06T10:01:28.043Z,1.80
2023-03-06T10:03:57.845Z,2.75
2023-03-06T10:06:26.692Z,3.13
2023-03-06T10:09:02.408Z,6.22
2023-03-06T10:11:40.801Z,5.32
2023-03-06T10:14:14.109Z,5.35
2023-03-06T10:16:40.533Z,3.47
2023-03-06T10:19:17.355Z,3.33
2023-03-06T10:21:52.428Z,2.28
2023-03-06T10:24:26.423Z,2.58
2023-03-06T10:27:10.413Z,3.75
2023-03-06T10:29:56.358Z,2.67
2023-03-06T10:32:47.466Z,10.57
2023-03-06T10:35:22.543Z,10.35
2023-03-06T10:37:49.090Z,3.92
2023-03-06T10:40:20.375Z,2.80
2023-03-06T10:42:46.815Z,13.25
2023-03-06T10:45:16.711Z,1.60
2023-03-06T10:47:44.173Z,1.80
2023-03-06T10:52:36.802Z,5.00
2023-03-06T10:55:21.220Z,1.73
2023-03-06T10:57:47.554Z,1.30
2023-03-06T11:00:33.518Z,1.77
2023-03-06T11:03:26.328Z,2.17
2023-03-06T11:06:04.584Z,4.30
2023-03-06T11:08:31.413Z,6.03
2023-03-06T11:11:03.839Z,3.45
2023-03-06T11:13:32.062Z,2.40
2023-03-06T11:16:13.476Z,1.98
2023-03-06T11:18:40.799Z,1.42
2023-03-06T11:21:24.284Z,1.42
2023-03-06T11:23:51.291Z,2.80
2023-03-06T11:26:17.782Z,1.48
2023-03-06T11:28:56.392Z,0.93
2023-03-06T11:31:24.133Z,0.75
2023-03-06T11:36:36.166Z,1.05
2023-03-06T11:39:04.548Z,2.97
2023-03-06T11:41:39.056Z,1.40
2023-03-06T11:44:05.379Z,1.63
2023-03-06T11:46:38.522Z,1.20
2023-03-06T11:49:11.128Z,1.60
2023-03-06T11:51:40.024Z,0.60
2023-03-06T11:54:09.460Z,0.50
2023-03-06T11:56:35.777Z,0.47
2023-03-06T11:59:05.146Z,0.30
2023-03-06T12:01:34.513Z,1.40
2023-03-06T12:04:00.874Z,0.40
2023-03-06T12:06:42.567Z,0.32
2023-03-06T12:09:12.071Z,0.40
2023-03-06T12:12:00.986Z,2.15
2023-03-06T12:14:33.889Z,0.35
2023-03-06T12:17:15.202Z,0.80
2023-03-06T12:19:55.968Z,0.80
2023-03-06T12:22:31.354Z,0.60
2023-03-06T12:25:03.892Z,0.70
2023-03-06T12:27:46.921Z,0.65
2023-03-06T12:30:16.094Z,0.80
2023-03-06T12:32:48.440Z,0.90
2023-03-06T12:35:33.773Z,0.57
2023-03-06T12:38:18.670Z,0.80
2023-03-06T12:40:54.276Z,0.50
2023-03-06T12:43:40.141Z,0.40
2023-03-06T12:46:11.402Z,0.57
2023-03-06T12:48:38.597Z,0.47
2023-03-06T12:51:06.424Z,1.17
2023-03-06T12:53:33.866Z,0.70
2023-03-06T12:56:01.182Z,1.20
2023-03-06T12:58:30.431Z,2.70
2023-03-06T13:01:13.992Z,3.88
2023-03-06T13:03:59.324Z,1.00
2023-03-06T13:06:44.991Z,1.10
2023-03-06T13:09:22.210Z,0.68
2023-03-06T13:11:51.553Z,0.65
2023-03-06T13:14:30.787Z,0.63
2023-03-06T13:17:17.087Z,0.82
2023-03-06T13:19:43.608Z,1.00
2023-03-06T13:22:29.496Z,0.85
2023-03-06T13:25:14.789Z,0.60
2023-03-06T13:27:46.533Z,1.17
2023-03-06T13:30:22.211Z,0.70
2023-03-06T13:32:49.376Z,0.60
2023-03-06T13:35:32.097Z,0.50
2023-03-06T13:37:59.158Z,1.20
2023-03-06T13:40:26.044Z,0.70
2023-03-06T13:42:52.676Z,2.57
2023-03-06T13:45:34.479Z,1.45
2023-03-06T13:48:37.642Z,0.70
2023-03-06T13:50:49.388Z,0.20
2023-03-06T13:53:18.839Z,0.30
2023-03-06T13:56:06.412Z,0.35
2023-03-06T13:58:38.578Z,0.73
2023-03-06T14:01:16.057Z,0.70
2023-03-06T14:03:51.647Z,0.73
2023-03-06T14:06:44.453Z,0.43
2023-03-06T14:09:18.915Z,1.70
2023-03-06T14:11:54.236Z,2.00
2023-03-06T14:14:28.099Z,2.47
2023-03-06T14:16:55.036Z,3.40
2023-03-06T14:19:22.620Z,4.43
2023-03-06T14:21:56.810Z,4.95
2023-03-06T14:24:49.284Z,2.78
2023-03-06T14:27:17.049Z,2.95
2023-03-06T14:32:11.019Z,1.00
2023-03-06T14:34:39.981Z,0.52
2023-03-06T14:37:18.442Z,0.90
2023-03-06T14:39:45.063Z,0.88
2023-03-06T14:42:19.088Z,0.90
2023-03-06T14:44:46.199Z,0.80
2023-03-06T14:47:12.541Z,1.10
2023-03-06T14:49:38.868Z,0.50
2023-03-06T14:52:05.233Z,0.95
2023-03-06T14:54:33.309Z,0.60
2023-03-06T14:57:08.475Z,0.90
2023-03-06T14:59:39.219Z,1.00
2023-03-06T15:02:08.887Z,1.08
2023-03-06T15:04:38.938Z,0.80
2023-03-06T15:07:07.670Z,1.10
2023-03-06T15:09:35.851Z,0.95
2023-03-06T15:12:04.385Z,0.80
2023-03-06T15:14:40.993Z,0.90
2023-03-06T15:17:19.451Z,1.27
2023-03-06T15:19:46.928Z,0.50
2023-03-06T15:22:25.476Z,1.08
2023-03-06T15:24:51.906Z,1.23
2023-03-06T15:27:19.796Z,1.63
2023-03-06T15:32:14.003Z,1.35
2023-03-06T15:34:40.532Z,1.02
2023-03-06T15:37:25.656Z,1.08
2023-03-06T15:40:02.174Z,1.35
2023-03-06T15:42:29.017Z,1.40
2023-03-06T15:44:56.489Z,1.30
2023-03-06T15:47:23.327Z,1.00
2023-03-06T15:49:52.683Z,1.08
2023-03-06T15:52:22.706Z,1.70
2023-03-06T15:54:49.303Z,1.25
2023-03-06T15:57:20.346Z,1.10
2023-03-06T15:59:46.692Z,1.35
2023-03-06T16:02:17.411Z,2.83
2023-03-06T16:04:44.290Z,4.22
2023-03-06T16:07:11.177Z,2.90
2023-03-06T16:09:37.490Z,2.65
2023-03-06T16:12:04.331Z,3.88
2023-03-06T16:14:30.865Z,2.78
2023-03-06T16:16:57.497Z,2.47
2023-03-06T16:19:26.648Z,1.80
2023-03-06T16:21:54.702Z,3.50
2023-03-06T16:24:21.198Z,2.45
2023-03-06T16:26:50.696Z,1.90
2023-03-06T16:29:18.505Z,2.35
2023-03-06T16:34:11.779Z,1.83
2023-03-06T16:36:38.209Z,2.83
2023-03-06T16:39:04.734Z,2.20
2023-03-06T16:41:31.200Z,1.23
2023-03-06T16:43:57.762Z,3.47
2023-03-06T16:46:24.482Z,1.13
2023-03-06T16:48:51.271Z,1.10
2023-03-06T16:51:19.101Z,1.42
2023-03-06T16:53:45.640Z,1.48
2023-03-06T16:56:13.031Z,1.70
2023-03-06T16:58:40.068Z,1.23
2023-03-06T17:01:07.125Z,0.90
2023-03-06T17:03:34.148Z,1.00
2023-03-06T17:06:00.992Z,1.23
2023-03-06T17:08:27.462Z,1.30
2023-03-06T17:10:53.821Z,1.00
2023-03-06T17:13:20.432Z,1.00
2023-03-06T17:15:56.047Z,1.20
2023-03-06T17:18:24.044Z,1.35
2023-03-06T17:20:51.435Z,1.63
2023-03-06T17:23:22.421Z,1.10
2023-03-06T17:25:48.773Z,2.95
2023-03-06T17:28:15.129Z,1.63
2023-03-06T17:30:41.511Z,1.00
2023-03-06T17:33:07.844Z,1.20
2023-03-06T17:35:35.266Z,1.23
2023-03-06T17:38:01.792Z,1.58
2023-03-06T17:40:28.132Z,1.60
2023-03-06T17:42:54.446Z,2.70
2023-03-06T17:45:20.783Z,3.38
2023-03-06T17:47:49.074Z,1.20
2023-03-06T17:50:15.517Z,2.72
2023-03-06T17:52:41.860Z,3.50
2023-03-06T17:55:08.589Z,2.40
2023-03-06T17:57:35.000Z,3.03
2023-03-06T18:00:02.419Z,2.97
2023-03-06T18:02:28.801Z,2.70
2023-03-06T18:04:55.734Z,2.80
2023-03-06T18:07:22.160Z,4.03
2023-03-06T18:09:48.471Z,3.25
2023-03-06T18:12:14.868Z,3.45
2023-03-06T18:14:41.204Z,2.28
2023-03-06T18:17:07.517Z,1.52
2023-03-06T18:19:33.863Z,2.10
2023-03-06T18:22:00.552Z,2.08
2023-03-06T18:24:26.944Z,2.88
2023-03-06T18:26:53.250Z,3.10
2023-03-06T18:29:19.603Z,3.58
2023-03-06T18:31:49.802Z,3.70
2023-03-06T18:34:17.841Z,3.00
2023-03-06T18:39:13.761Z,4.78
2023-03-06T18:41:40.105Z,3.20
2023-03-06T18:44:06.548Z,2.50
2023-03-06T18:46:34.288Z,2.72
2023-03-06T18:49:00.818Z,3.78
2023-03-06T18:51:27.232Z,14.73
2023-03-06T18:53:55.812Z,17.13
2023-03-06T18:56:22.783Z,45.05
2023-03-06T18:58:50.355Z,9.48
2023-03-06T19:01:17.341Z,9.93
2023-03-06T19:03:43.776Z,21.80
2023-03-06T19:06:11.416Z,183.68
2023-03-06T19:08:38.711Z,117.95
2023-03-06T19:11:06.445Z,89.10
2023-03-06T19:13:32.828Z,21.63
2023-03-06T19:15:59.354Z,3.85
2023-03-06T19:18:26.433Z,35.15
2023-03-06T19:20:53.552Z,4.43
2023-03-06T19:23:21.129Z,17.15
2023-03-06T19:25:57.093Z,8.52
2023-03-06T19:28:23.464Z,17.55
2023-03-06T19:30:49.812Z,4.28
2023-03-06T19:33:16.521Z,6.80
2023-03-06T19:35:42.973Z,3.58
2023-03-06T19:38:10.211Z,3.67
2023-03-06T19:40:36.880Z,2.20
2023-03-06T19:43:03.457Z,11.25
2023-03-06T19:45:29.776Z,5.28
2023-03-06T19:48:00.713Z,2.90
2023-03-06T19:50:30.457Z,2.15
2023-03-06T19:52:57.409Z,2.47
2023-03-06T19:55:26.248Z,5.35
2023-03-06T19:57:53.031Z,1.80
2023-03-06T20:00:19.515Z,2.95
2023-03-06T20:02:45.920Z,8.18
2023-03-06T20:05:12.415Z,3.80
2023-03-06T20:07:38.733Z,1.27
2023-03-06T20:10:05.285Z,1.88
2023-03-06T20:12:33.141Z,11.05
2023-03-06T20:14:59.658Z,14.25
2023-03-06T20:17:26.021Z,5.25
2023-03-06T20:19:52.538Z,1.55
2023-03-06T20:22:21.546Z,2.42
2023-03-06T20:24:47.866Z,1.40
2023-03-06T20:27:14.181Z,2.08
2023-03-06T20:29:44.588Z,2.85
2023-03-06T20:32:12.505Z,2.47
2023-03-06T20:37:05.926Z,1.90
2023-03-06T20:39:32.414Z,9.65
2023-03-06T20:41:59.978Z,1.60
2023-03-06T20:44:26.739Z,3.53
2023-03-06T20:46:53.105Z,2.10
2023-03-06T20:49:19.527Z,1.70
2023-03-06T20:51:45.842Z,2.50
2023-03-06T20:54:13.248Z,9.70
2023-03-06T20:56:41.100Z,11.95
2023-03-06T20:59:10.517Z,2.70
2023-03-06T21:01:41.524Z,1.60
2023-03-06T21:04:13.503Z,4.43
2023-03-06T21:06:40.806Z,2.60
2023-03-06T21:09:07.234Z,2.17
2023-03-06T21:11:34.269Z,2.10
2023-03-06T21:14:00.906Z,4.47
2023-03-06T21:16:27.996Z,2.95
2023-03-06T21:18:55.266Z,3.40
2023-03-06T21:21:22.929Z,3.20
2023-03-06T21:23:49.740Z,3.17
2023-03-06T21:26:17.790Z,8.30
2023-03-06T21:28:44.234Z,10.90
2023-03-06T21:31:11.489Z,2.35
2023-03-06T21:33:38.352Z,17.30
2023-03-06T21:36:05.272Z,6.93
2023-03-06T21:38:31.934Z,2.50
2023-03-06T21:41:06.256Z,3.28
2023-03-06T21:43:32.614Z,5.78
2023-03-06T21:45:59.304Z,2.80
2023-03-06T21:48:25.646Z,6.63
2023-03-06T21:50:52.079Z,14.85
2023-03-06T21:53:18.395Z,13.27
2023-03-06T21:55:44.713Z,4.32
2023-03-06T21:58:11.061Z,3.47
2023-03-06T22:00:38.235Z,9.60
2023-03-06T22:03:04.868Z,12.32
2023-03-06T22:05:33.997Z,18.52
2023-03-06T22:08:00.319Z,17.33
2023-03-06T22:10:26.668Z,10.85
2023-03-06T22:12:53.049Z,10.43
2023-03-06T22:15:21.736Z,10.10
2023-03-06T22:17:48.660Z,12.05
2023-03-06T22:20:15.418Z,6.75
2023-03-06T22:22:42.246Z,8.05
2023-03-06T22:25:09.169Z,5.93
2023-03-06T22:27:35.591Z,8.55
2023-03-06T22:30:01.903Z,7.72
2023-03-06T22:32:28.331Z,6.63
2023-03-06T22:34:54.715Z,5.63
2023-03-06T22:37:21.019Z,7.05
2023-03-06T22:39:47.695Z,7.30
2023-03-06T22:42:14.039Z,7.55
2023-03-06T22:44:40.352Z,7.45
2023-03-06T22:47:06.694Z,7.85
2023-03-06T22:49:33.060Z,7.72
2023-03-06T22:51:59.376Z,7.28
2023-03-06T22:54:25.770Z,7.25
2023-03-06T22:56:52.109Z,4.80
2023-03-06T22:59:18.437Z,6.15
2023-03-06T23:01:44.793Z,5.30
2023-03-06T23:04:11.448Z,6.00
2023-03-06T23:06:39.832Z,6.07
2023-03-06T23:09:08.069Z,5.18
2023-03-06T23:11:34.822Z,6.50
2023-03-06T23:14:01.416Z,7.72
2023-03-06T23:16:27.753Z,5.88
2023-03-06T23:18:54.185Z,6.03
2023-03-06T23:21:21.509Z,8.00
2023-03-06T23:23:49.113Z,5.40
2023-03-06T23:26:15.958Z,4.55
2023-03-06T23:28:42.482Z,5.28
2023-03-06T23:31:09.543Z,5.97
2023-03-06T23:33:36.914Z,5.93
2023-03-06T23:36:04.260Z,5.53
2023-03-06T23:38:30.634Z,4.63
2023-03-06T23:41:01.054Z,4.90
2023-03-06T23:43:27.605Z,5.20
2023-03-06T23:45:54.807Z,5.28
2023-03-06T23:48:21.351Z,3.70
2023-03-06T23:50:47.688Z,5.72
2023-03-06T23:53:14.618Z,5.13
2023-03-06T23:55:45.413Z,4.60
2023-03-06T23:58:12.475Z,5.65
